Time;durP1;ratioP1;P1;durP2;ratioP2;P2;SDS_P1;SDS_P2;PMS_P1;PMS_P2;Temp;Humidity;BMP_temperature;BMP_pressure;BME280_temperature;BME280_humidity;BME280_pressure;Samples;Min_cycle;Max_cycle;Signal;HPM_P1;HPM_P2
2023/02/27 00:01:28;;;;;;;7.95;1.40;;;4.40;85.80;;;;;;5088788;28;20395;-74
2023/02/27 00:03:54;;;;;;;5.80;1.48;;;4.30;84.90;;;;;;5080918;28;20402;-74
2023/02/27 00:06:19;;;;;;;4.25;1.20;;;4.40;85.00;;;;;;5070638;28;20044;-74
2023/02/27 00:08:45;;;;;;;4.03;1.45;;;4.30;85.10;;;;;;5073473;28;20098;-75
2023/02/27 00:11:11;;;;;;;5.30;1.80;;;4.30;86.10;;;;;;5083445;28;20021;-74
2023/02/27 00:13:37;;;;;;;5.15;1.45;;;4.30;84.40;;;;;;5082427;28;20052;-74
2023/02/27 00:16:02;;;;;;;6.78;1.52;;;4.30;85.90;;;;;;5080273;28;20782;-75
2023/02/27 00:18:28;;;;;;;6.13;1.65;;;4.30;85.20;;;;;;5084589;28;20024;-75
2023/02/27 00:20:54;;;;;;;4.05;1.35;;;4.30;88.10;;;;;;5084783;28;20017;-74
2023/02/27 00:23:19;;;;;;;4.95;2.30;;;4.30;84.70;;;;;;5069864;28;20044;-73
2023/02/27 00:25:45;;;;;;;6.82;1.77;;;4.30;86.60;;;;;;5077022;28;20602;-74
2023/02/27 00:28:11;;;;;;;5.85;2.05;;;4.40;87.40;;;;;;5088966;28;20020;-74
2023/02/27 00:30:36;;;;;;;4.80;1.75;;;4.40;87.80;;;;;;5075860;28;20024;-74
2023/02/27 00:33:02;;;;;;;8.63;1.70;;;4.30;87.70;;;;;;5087300;28;20587;-75
2023/02/27 00:35:28;;;;;;;5.70;1.50;;;4.30;88.00;;;;;;5076224;28;20684;-75
2023/02/27 00:37:54;;;;;;;6.18;2.00;;;4.30;85.40;;;;;;5089196;28;20040;-74
2023/02/27 00:40:19;;;;;;;7.30;1.60;;;4.30;84.60;;;;;;5077973;28;20013;-74
2023/02/27 00:42:47;;;;;;;6.60;1.73;;;4.30;82.90;;;;;;5068577;28;20076;-74
2023/02/27 00:45:13;;;;;;;6.28;1.65;;;4.30;82.50;;;;;;5077506;28;20118;-73
2023/02/27 00:47:39;;;;;;;7.70;2.00;;;4.30;81.30;;;;;;5073599;28;20063;-74
2023/02/27 00:50:05;;;;;;;4.55;2.15;;;4.30;82.30;;;;;;5078811;28;20064;-74
2023/02/27 00:52:32;;;;;;;6.60;1.65;;;4.20;82.90;;;;;;5088623;28;20482;-74
2023/02/27 00:54:58;;;;;;;5.90;2.30;;;4.20;83.40;;;;;;5088633;28;20082;-74
2023/02/27 00:57:24;;;;;;;9.00;2.35;;;4.20;83.00;;;;;;5083347;28;20474;-75
2023/02/27 00:59:50;;;;;;;6.47;1.85;;;4.20;82.20;;;;;;5091476;28;20052;-74
2023/02/27 01:02:15;;;;;;;5.93;1.70;;;4.20;81.30;;;;;;5080224;28;20024;-74
2023/02/27 01:04:41;;;;;;;5.68;1.20;;;4.10;82.00;;;;;;5087846;28;20115;-74
2023/02/27 01:07:07;;;;;;;4.28;1.42;;;4.20;85.80;;;;;;5080541;28;20051;-74
2023/02/27 01:09:33;;;;;;;6.00;1.52;;;4.10;85.10;;;;;;5092549;28;20031;-73
2023/02/27 01:11:58;;;;;;;7.70;2.15;;;4.10;85.10;;;;;;5083656;28;20107;-74
2023/02/27 01:14:24;;;;;;;5.22;1.65;;;4.20;83.20;;;;;;5071922;28;20025;-74
2023/02/27 01:16:50;;;;;;;5.93;1.35;;;4.20;82.20;;;;;;5083716;28;20016;-74
2023/02/27 01:19:16;;;;;;;5.80;1.73;;;4.20;83.20;;;;;;5072221;28;20024;-74
2023/02/27 01:21:42;;;;;;;3.13;1.33;;;4.30;83.60;;;;;;5077729;28;20107;-73
2023/02/27 01:24:08;;;;;;;7.43;2.38;;;4.30;83.50;;;;;;5073823;28;20040;-75
2023/02/27 01:26:34;;;;;;;8.02;1.70;;;4.30;83.90;;;;;;5077033;28;20109;-74
2023/02/27 01:29:00;;;;;;;4.95;2.08;;;4.30;81.90;;;;;;5086153;28;20107;-74
2023/02/27 01:31:25;;;;;;;6.05;1.80;;;4.20;81.00;;;;;;5086906;28;20043;-74
2023/02/27 01:33:51;;;;;;;5.95;1.75;;;4.20;82.10;;;;;;5084200;28;20043;-74
2023/02/27 01:36:17;;;;;;;6.35;1.80;;;4.20;81.10;;;;;;5089087;28;20918;-74
2023/02/27 01:38:42;;;;;;;5.07;1.40;;;4.20;81.10;;;;;;5071916;28;20040;-74
2023/02/27 01:41:08;;;;;;;5.95;1.50;;;4.20;80.50;;;;;;5075068;28;20025;-75
2023/02/27 01:43:52;;;;;;;6.85;2.10;;;4.20;80.00;;;;;;5091621;28;20161;-74
2023/02/27 01:46:18;;;;;;;6.45;2.10;;;4.20;79.60;;;;;;5090523;28;20031;-74
2023/02/27 01:48:44;;;;;;;4.75;1.83;;;4.20;79.80;;;;;;5079934;28;20016;-74
2023/02/27 01:51:17;;;;;;;9.20;2.38;;;4.10;79.60;;;;;;5073497;28;20437;-74
2023/02/27 01:53:46;;;;;;;10.15;2.30;;;4.10;81.60;;;;;;5081730;28;20029;-74
2023/02/27 01:56:17;;;;;;;4.68;2.03;;;4.10;80.90;;;;;;5056557;28;20506;-73
2023/02/27 01:58:45;;;;;;;6.13;1.80;;;4.10;80.90;;;;;;5079236;28;20020;-74
2023/02/27 02:01:10;;;;;;;6.03;1.83;;;4.00;80.60;;;;;;5090754;28;20103;-74
2023/02/27 02:04:16;;;;;;;6.45;2.13;;;4.00;80.70;;;;;;5076785;28;20174;-73
2023/02/27 02:06:46;;;;;;;4.80;1.92;;;4.00;81.20;;;;;;5071409;28;20048;-74
2023/02/27 02:09:16;;;;;;;6.38;2.10;;;3.90;81.00;;;;;;5086492;28;20028;-75
2023/02/27 02:11:45;;;;;;;5.22;1.48;;;3.90;82.80;;;;;;5091472;28;20031;-76
2023/02/27 02:14:11;;;;;;;5.20;2.00;;;3.80;82.70;;;;;;5078317;28;20086;-74
2023/02/27 02:16:55;;;;;;;4.68;1.90;;;3.80;82.50;;;;;;5084612;28;20078;-75
2023/02/27 02:19:39;;;;;;;5.45;2.58;;;3.70;82.40;;;;;;5078690;28;20077;-75
2023/02/27 02:22:38;;;;;;;6.90;2.33;;;3.70;82.70;;;;;;5091013;28;20028;-75
2023/02/27 02:25:24;;;;;;;5.85;1.80;;;3.60;82.70;;;;;;5076575;28;20498;-74
2023/02/27 02:28:20;;;;;;;5.60;2.00;;;3.60;83.50;;;;;;5089521;28;20032;-75
2023/02/27 02:30:58;;;;;;;5.50;2.47;;;3.50;83.60;;;;;;5080542;28;20025;-73
2023/02/27 02:33:48;;;;;;;6.05;2.10;;;3.50;83.40;;;;;;5087449;28;20039;-74
2023/02/27 02:36:49;;;;;;;9.32;2.10;;;3.50;84.00;;;;;;5088629;28;20717;-75
2023/02/27 02:39:40;;;;;;;7.55;2.05;;;3.50;83.70;;;;;;5083058;28;20051;-74
2023/02/27 02:42:17;;;;;;;4.00;1.50;;;3.50;84.50;;;;;;5092443;28;20161;-74
2023/02/27 02:45:15;;;;;;;4.40;1.83;;;3.50;84.50;;;;;;5077421;28;20052;-74
2023/02/27 02:48:10;;;;;;;5.28;1.98;;;3.40;84.30;;;;;;5062269;28;20052;-74
2023/02/27 02:50:47;;;;;;;8.63;1.95;;;3.40;84.90;;;;;;5078710;28;20020;-74
2023/02/27 02:53:31;;;;;;;11.15;1.92;;;3.40;85.20;;;;;;5090677;28;20024;-74
2023/02/27 02:56:05;;;;;;;7.18;2.40;;;3.40;85.60;;;;;;5075054;28;20043;-74
2023/02/27 02:58:36;;;;;;;6.35;1.88;;;3.40;85.50;;;;;;5073184;28;20024;-74
2023/02/27 03:01:10;;;;;;;6.88;2.38;;;3.40;86.30;;;;;;5077576;28;20021;-75
2023/02/27 03:03:51;;;;;;;5.38;1.77;;;3.40;86.40;;;;;;5079485;28;20351;-75
2023/02/27 03:06:26;;;;;;;7.45;2.30;;;3.40;86.10;;;;;;5082173;28;20076;-74
2023/02/27 03:09:01;;;;;;;15.65;2.40;;;3.40;86.60;;;;;;5084402;28;20024;-74
2023/02/27 03:11:33;;;;;;;8.13;2.20;;;3.30;86.60;;;;;;5080022;28;20039;-75
2023/02/27 03:14:30;;;;;;;5.22;1.85;;;3.30;86.60;;;;;;5087674;28;20028;-73
2023/02/27 03:17:01;;;;;;;7.65;2.00;;;3.30;86.40;;;;;;5071986;28;20482;-74
2023/02/27 03:19:32;;;;;;;6.32;2.03;;;3.30;85.40;;;;;;5089159;28;20017;-74
2023/02/27 03:22:06;;;;;;;6.88;1.83;;;3.20;84.80;;;;;;5079219;28;20024;-73
2023/02/27 03:24:41;;;;;;;7.07;2.25;;;3.20;84.70;;;;;;5087915;28;20066;-74
2023/02/27 03:27:08;;;;;;;8.50;2.53;;;3.20;84.70;;;;;;5078802;28;20081;-74
2023/02/27 03:29:43;;;;;;;7.43;2.30;;;3.10;84.50;;;;;;5087811;28;20032;-74
2023/02/27 03:32:16;;;;;;;6.97;2.20;;;3.10;84.30;;;;;;5078997;28;20024;-74
2023/02/27 03:34:43;;;;;;;6.57;2.08;;;3.10;84.30;;;;;;5088331;28;20023;-74
2023/02/27 03:37:37;;;;;;;9.88;3.05;;;3.10;84.40;;;;;;5079131;28;20032;-74
2023/02/27 03:40:34;;;;;;;5.82;2.33;;;3.00;84.60;;;;;;5088588;28;20086;-74
2023/02/27 03:43:22;;;;;;;8.90;2.03;;;2.90;84.90;;;;;;5080229;28;20036;-74
2023/02/27 03:45:58;;;;;;;5.90;2.28;;;2.90;85.20;;;;;;5086107;28;20008;-74
2023/02/27 03:48:24;;;;;;;8.07;2.30;;;2.90;85.40;;;;;;5083671;28;20032;-73
2023/02/27 03:50:49;;;;;;;7.28;2.53;;;2.80;85.70;;;;;;5087951;28;20016;-74
2023/02/27 03:53:29;;;;;;;6.28;2.42;;;2.80;85.90;;;;;;5071026;28;20111;-74
2023/02/27 03:55:57;;;;;;;9.75;2.88;;;2.80;85.90;;;;;;5071104;28;20124;-74
2023/02/27 03:58:23;;;;;;;9.68;2.28;;;2.80;86.40;;;;;;5088663;28;20061;-75
2023/02/27 04:00:48;;;;;;;9.07;2.40;;;2.80;86.70;;;;;;5088825;28;20502;-75
2023/02/27 04:03:14;;;;;;;13.80;3.80;;;2.80;87.00;;;;;;5074058;28;20029;-75
2023/02/27 04:05:40;;;;;;;8.27;2.45;;;2.80;86.80;;;;;;5070314;28;20134;-74
2023/02/27 04:08:18;;;;;;;5.90;1.95;;;2.80;87.40;;;;;;5072023;28;20020;-74
2023/02/27 04:10:53;;;;;;;11.02;2.45;;;2.80;88.00;;;;;;5069514;28;20021;-74
2023/02/27 04:13:46;;;;;;;8.25;2.33;;;2.80;89.00;;;;;;5077819;28;20012;-74
2023/02/27 04:16:25;;;;;;;6.57;2.25;;;2.80;89.30;;;;;;5087964;28;20056;-74
2023/02/27 04:19:05;;;;;;;11.63;2.50;;;2.80;88.80;;;;;;5070905;28;20386;-75
2023/02/27 04:21:31;;;;;;;7.70;2.30;;;2.80;88.80;;;;;;5077860;28;20375;-73
2023/02/27 04:24:26;;;;;;;7.82;2.25;;;2.80;88.60;;;;;;5081147;28;20055;-73
2023/02/27 04:26:57;;;;;;;6.80;2.50;;;2.80;89.20;;;;;;5027752;28;20029;-74
2023/02/27 04:30:13;;;;;;;6.22;2.22;;;2.90;90.00;;;;;;5080588;28;20020;-75
2023/02/27 04:32:48;;;;;;;5.32;1.77;;;2.90;90.10;;;;;;5089750;28;20483;-74
2023/02/27 04:35:28;;;;;;;5.25;1.98;;;3.00;90.80;;;;;;5078121;28;20425;-74
2023/02/27 04:38:15;;;;;;;7.45;2.58;;;3.00;90.80;;;;;;5074479;28;20471;-75
2023/02/27 04:40:49;;;;;;;4.82;1.90;;;3.00;91.20;;;;;;5081758;28;20382;-75
2023/02/27 04:43:16;;;;;;;6.25;2.25;;;3.00;91.30;;;;;;5082024;28;20031;-75
2023/02/27 04:45:45;;;;;;;9.82;2.15;;;3.00;91.00;;;;;;5090505;28;20024;-73
2023/02/27 04:48:52;;;;;;;7.50;2.58;;;3.00;91.10;;;;;;5085744;28;20032;-74
2023/02/27 04:51:23;;;;;;;6.95;2.67;;;3.00;91.10;;;;;;5087434;28;20123;-74
2023/02/27 04:54:09;;;;;;;11.18;3.03;;;3.00;90.60;;;;;;5088034;28;20028;-75
2023/02/27 04:56:42;;;;;;;6.32;2.50;;;3.00;90.40;;;;;;5090759;28;20115;-75
2023/02/27 04:59:15;;;;;;;7.13;2.75;;;3.10;90.40;;;;;;5088730;28;20667;-75
2023/02/27 05:01:45;;;;;;;10.43;2.97;;;3.00;90.30;;;;;;5078416;28;20031;-74
2023/02/27 05:04:17;;;;;;;7.50;2.83;;;3.00;90.20;;;;;;5081019;28;20036;-74
2023/02/27 05:06:46;;;;;;;9.88;2.20;;;3.10;90.00;;;;;;5090933;28;20048;-74
2023/02/27 05:09:36;;;;;;;5.90;2.65;;;3.10;90.00;;;;;;5081349;28;20017;-75
2023/02/27 05:12:25;;;;;;;9.50;2.40;;;3.10;89.90;;;;;;5074707;28;20477;-76
2023/02/27 05:15:17;;;;;;;7.43;2.22;;;3.10;90.00;;;;;;5078408;28;20024;-75
2023/02/27 05:17:55;;;;;;;11.63;2.92;;;3.10;90.20;;;;;;5091696;28;20133;-74
2023/02/27 05:20:29;;;;;;;10.38;2.55;;;3.10;89.70;;;;;;5082310;28;20020;-74
2023/02/27 05:23:05;;;;;;;7.63;2.88;;;3.10;89.30;;;;;;5071679;28;20025;-74
2023/02/27 05:25:40;;;;;;;8.40;2.53;;;3.10;89.80;;;;;;5084732;28;20834;-74
2023/02/27 05:28:17;;;;;;;7.88;2.85;;;3.10;90.00;;;;;;5072246;28;20107;-74
2023/02/27 05:30:50;;;;;;;7.25;2.33;;;3.10;90.40;;;;;;5084276;28;20021;-74
2023/02/27 05:33:42;;;;;;;8.50;3.00;;;3.10;90.30;;;;;;5090423;28;20494;-74
2023/02/27 05:36:23;;;;;;;8.15;2.40;;;3.20;90.70;;;;;;5082711;28;20017;-74
2023/02/27 05:38:55;;;;;;;7.38;2.30;;;3.20;90.80;;;;;;5077770;28;20039;-75
2023/02/27 05:41:38;;;;;;;7.50;2.03;;;3.20;90.70;;;;;;5079430;28;20038;-74
2023/02/27 05:44:15;;;;;;;5.70;2.35;;;3.20;91.00;;;;;;5090339;28;20036;-74
2023/02/27 05:46:45;;;;;;;5.00;2.20;;;3.20;91.30;;;;;;5079757;28;20539;-74
2023/02/27 05:49:36;;;;;;;7.20;2.78;;;3.30;91.20;;;;;;5077190;28;20027;-76
2023/02/27 05:52:05;;;;;;;7.43;2.17;;;3.30;91.70;;;;;;5082356;28;20027;-74
2023/02/27 05:54:54;;;;;;;4.57;1.90;;;3.30;91.70;;;;;;5072922;28;20023;-73
2023/02/27 05:57:30;;;;;;;6.93;2.50;;;3.30;91.90;;;;;;5080453;28;20301;-74
2023/02/27 06:00:05;;;;;;;5.90;2.10;;;3.30;91.70;;;;;;5086585;28;20020;-74
2023/02/27 06:02:30;;;;;;;8.07;2.65;;;3.30;92.30;;;;;;5077018;28;20028;-74
2023/02/27 06:04:56;;;;;;;8.07;2.63;;;3.40;93.80;;;;;;5089431;28;20029;-74
2023/02/27 06:07:22;;;;;;;12.38;2.85;;;3.40;93.10;;;;;;5091145;28;20044;-74
2023/02/27 06:09:49;;;;;;;8.02;2.10;;;3.40;93.90;;;;;;5090105;28;20595;-73
2023/02/27 06:12:16;;;;;;;8.02;3.00;;;3.40;93.10;;;;;;5079212;28;20019;-73
2023/02/27 06:14:42;;;;;;;7.80;2.78;;;3.40;92.70;;;;;;5090339;28;20161;-73
2023/02/27 06:17:07;;;;;;;8.45;2.97;;;3.50;92.40;;;;;;5088747;28;20095;-74
2023/02/27 06:19:33;;;;;;;9.05;2.50;;;3.50;92.00;;;;;;5089777;28;20402;-74
2023/02/27 06:21:58;;;;;;;8.55;2.50;;;3.50;92.00;;;;;;5077432;28;20483;-73
2023/02/27 06:24:25;;;;;;;7.85;2.65;;;3.50;91.70;;;;;;5090816;28;20047;-73
2023/02/27 06:26:51;;;;;;;7.53;2.33;;;3.50;92.20;;;;;;5078060;28;20052;-74
2023/02/27 06:29:16;;;;;;;6.25;2.47;;;3.50;91.90;;;;;;5086982;28;20024;-74
2023/02/27 06:31:42;;;;;;;4.63;1.80;;;3.50;91.90;;;;;;5082643;28;20023;-74
2023/02/27 06:34:08;;;;;;;7.15;1.83;;;3.50;91.80;;;;;;5080602;28;20039;-74
2023/02/27 06:36:33;;;;;;;6.43;2.33;;;3.50;92.70;;;;;;5080724;28;20027;-73
2023/02/27 06:38:59;;;;;;;13.18;3.13;;;3.50;92.40;;;;;;5085413;28;20032;-74
2023/02/27 06:41:26;;;;;;;11.20;3.83;;;3.50;91.80;;;;;;5076917;28;20035;-73
2023/02/27 06:43:51;;;;;;;6.22;2.78;;;3.60;91.20;;;;;;5079245;28;20063;-73
2023/02/27 06:46:17;;;;;;;10.93;2.67;;;3.70;91.90;;;;;;5082405;28;20052;-73
2023/02/27 06:48:43;;;;;;;5.45;2.40;;;3.90;91.60;;;;;;5078954;28;20044;-74
2023/02/27 06:51:08;;;;;;;7.93;3.22;;;4.00;91.10;;;;;;5077428;28;20534;-73
2023/02/27 06:53:34;;;;;;;10.63;2.90;;;4.30;90.60;;;;;;5075179;28;20032;-74
2023/02/27 06:55:59;;;;;;;5.50;2.53;;;4.50;90.30;;;;;;5073561;28;20024;-74
2023/02/27 06:58:25;;;;;;;9.48;2.90;;;4.70;90.10;;;;;;5076689;28;20020;-74
2023/02/27 07:00:51;;;;;;;7.32;2.55;;;4.90;88.50;;;;;;5077329;28;20104;-73
2023/02/27 07:03:17;;;;;;;11.65;2.80;;;5.00;88.80;;;;;;5072773;28;20073;-75
2023/02/27 07:05:43;;;;;;;8.50;2.10;;;5.20;87.50;;;;;;5074520;28;20028;-74
2023/02/27 07:08:10;;;;;;;11.05;3.03;;;5.40;90.50;;;;;;5072838;28;20101;-73
2023/02/27 07:10:36;;;;;;;8.57;3.13;;;5.60;88.90;;;;;;5074372;28;20087;-73
2023/02/27 07:13:02;;;;;;;9.05;3.28;;;5.70;87.90;;;;;;5076840;28;20137;-74
2023/02/27 07:15:28;;;;;;;5.50;2.20;;;5.80;87.40;;;;;;5077206;28;20023;-72
2023/02/27 07:17:53;;;;;;;9.48;2.70;;;5.90;86.10;;;;;;5074410;28;20016;-73
2023/02/27 07:20:19;;;;;;;5.55;2.55;;;6.00;88.30;;;;;;5077771;28;20402;-73
2023/02/27 07:22:45;;;;;;;8.45;3.80;;;6.20;86.30;;;;;;5079178;28;20024;-75
2023/02/27 07:25:10;;;;;;;8.95;2.83;;;6.30;84.60;;;;;;5075282;28;20074;-74
2023/02/27 07:27:36;;;;;;;7.70;2.38;;;6.40;83.90;;;;;;5079507;28;20036;-74
2023/02/27 07:30:02;;;;;;;4.80;1.80;;;6.50;85.90;;;;;;5080050;28;20032;-75
2023/02/27 07:32:29;;;;;;;7.40;2.35;;;6.70;87.80;;;;;;5076247;28;20761;-74
2023/02/27 07:34:55;;;;;;;10.77;2.45;;;6.80;84.10;;;;;;5078493;28;20012;-73
2023/02/27 07:37:21;;;;;;;7.93;2.75;;;6.90;81.30;;;;;;5078940;28;20017;-73
2023/02/27 07:39:47;;;;;;;7.88;2.38;;;6.90;81.60;;;;;;5076067;28;20024;-74
2023/02/27 07:42:12;;;;;;;7.75;2.08;;;6.90;78.90;;;;;;5080263;28;20487;-74
2023/02/27 07:44:39;;;;;;;6.32;2.20;;;7.00;82.10;;;;;;5078140;28;20115;-75
2023/02/27 07:47:05;;;;;;;7.75;2.42;;;7.10;80.60;;;;;;5078765;28;20391;-74
2023/02/27 07:49:30;;;;;;;6.82;2.40;;;7.20;77.40;;;;;;5077001;28;20039;-74
2023/02/27 07:51:57;;;;;;;10.93;2.55;;;7.20;75.30;;;;;;5079080;28;20017;-76
2023/02/27 07:54:23;;;;;;;4.65;2.17;;;7.30;74.90;;;;;;5075412;28;20027;-74
2023/02/27 07:56:48;;;;;;;7.38;2.42;;;7.30;73.60;;;;;;5075985;28;20495;-74
2023/02/27 07:59:14;;;;;;;8.98;2.13;;;7.50;73.20;;;;;;5075296;28;20033;-74
2023/02/27 08:01:39;;;;;;;6.72;2.55;;;7.60;72.10;;;;;;5075068;28;20086;-75
2023/02/27 08:04:05;;;;;;;4.28;1.73;;;7.70;72.80;;;;;;5074454;28;20151;-74
2023/02/27 08:06:31;;;;;;;9.48;2.53;;;7.70;71.20;;;;;;5079389;28;20048;-73
2023/02/27 08:08:56;;;;;;;5.85;2.10;;;7.70;70.40;;;;;;5082551;28;20723;-74
2023/02/27 08:11:22;;;;;;;7.50;1.75;;;7.70;72.20;;;;;;5070845;28;20017;-74
2023/02/27 08:13:48;;;;;;;7.43;1.75;;;7.90;83.00;;;;;;5084452;28;20066;-74
2023/02/27 08:16:14;;;;;;;3.72;1.65;;;7.90;81.40;;;;;;5078039;28;20021;-76
2023/02/27 08:18:40;;;;;;;4.38;2.42;;;7.90;84.60;;;;;;5084721;28;20424;-75
2023/02/27 08:21:06;;;;;;;7.13;2.38;;;7.90;80.90;;;;;;5075865;28;20036;-75
2023/02/27 08:23:33;;;;;;;7.57;1.92;;;8.00;75.30;;;;;;5084684;28;20040;-75
2023/02/27 08:25:59;;;;;;;5.70;1.80;;;8.10;78.50;;;;;;5082117;28;20119;-76
2023/02/27 08:28:26;;;;;;;4.50;1.73;;;8.10;74.70;;;;;;5078660;28;20180;-75
2023/02/27 08:30:52;;;;;;;4.18;1.80;;;8.20;81.20;;;;;;5078238;28;20462;-75
2023/02/27 08:33:18;;;;;;;8.90;2.20;;;8.20;78.60;;;;;;5079256;28;20546;-74
2023/02/27 08:35:43;;;;;;;7.43;2.72;;;8.30;73.10;;;;;;5079659;28;20024;-75
2023/02/27 08:38:09;;;;;;;4.60;1.60;;;8.30;70.50;;;;;;5083988;28;20700;-75
2023/02/27 08:40:34;;;;;;;7.82;2.22;;;8.40;69.00;;;;;;5079000;28;20028;-74
2023/02/27 08:43:00;;;;;;;5.43;1.75;;;8.50;67.80;;;;;;5080373;28;20032;-75
2023/02/27 08:45:27;;;;;;;7.00;1.98;;;8.60;89.60;;;;;;5081597;28;20065;-74
2023/02/27 08:47:52;;;;;;;6.70;2.17;;;8.60;86.10;;;;;;5086327;28;20442;-76
2023/02/27 08:50:18;;;;;;;11.20;2.08;;;8.60;73.80;;;;;;5086868;28;20273;-74
2023/02/27 08:52:44;;;;;;;4.18;1.50;;;8.70;72.10;;;;;;5081313;28;20032;-75
2023/02/27 08:55:10;;;;;;;6.13;1.73;;;8.80;68.90;;;;;;5084007;28;20102;-74
2023/02/27 08:57:35;;;;;;;7.93;2.10;;;8.90;79.00;;;;;;5077623;28;20115;-74
2023/02/27 09:00:05;;;;;;;5.70;1.67;;;8.90;69.90;;;;;;5080461;28;20021;-74
2023/02/27 09:02:30;;;;;;;6.18;1.98;;;9.00;79.50;;;;;;5079303;28;20078;-75
2023/02/27 09:04:56;;;;;;;7.68;1.77;;;9.10;79.00;;;;;;5081720;28;20036;-75
2023/02/27 09:07:22;;;;;;;6.63;2.00;;;9.30;80.10;;;;;;5080239;28;20044;-75
2023/02/27 09:09:47;;;;;;;8.13;2.38;;;9.40;72.70;;;;;;5079359;28;20043;-75
2023/02/27 09:12:13;;;;;;;3.70;1.35;;;9.60;79.40;;;;;;5075261;28;20020;-74
2023/02/27 09:14:38;;;;;;;5.60;1.30;;;9.50;85.70;;;;;;5080047;28;20028;-76
2023/02/27 09:17:05;;;;;;;6.22;1.60;;;9.60;76.70;;;;;;5079817;28;20412;-75
2023/02/27 09:19:31;;;;;;;5.38;1.85;;;9.60;81.30;;;;;;5077892;28;20093;-75
2023/02/27 09:21:57;;;;;;;6.93;1.73;;;9.60;86.60;;;;;;5080965;28;20066;-75
2023/02/27 09:24:22;;;;;;;3.88;1.17;;;9.70;70.70;;;;;;5080463;28;20037;-75
2023/02/27 09:26:48;;;;;;;6.68;1.38;;;9.80;91.30;;;;;;5081096;28;20039;-75
2023/02/27 09:29:14;;;;;;;4.57;1.70;;;10.00;90.20;;;;;;5080286;28;20020;-76
2023/02/27 09:31:40;;;;;;;3.90;1.40;;;10.10;85.30;;;;;;5083508;28;20028;-75
2023/02/27 09:34:07;;;;;;;9.07;1.90;;;10.20;93.70;;;;;;5082163;28;20843;-76
2023/02/27 09:36:33;;;;;;;8.68;1.55;;;10.30;91.90;;;;;;5083984;28;20154;-74
2023/02/27 09:38:59;;;;;;;10.20;1.80;;;10.30;69.60;;;;;;5083195;28;20024;-75
2023/02/27 09:41:48;;;;;;;5.30;1.30;;;10.20;65.70;;;;;;5079313;28;20016;-74
2023/02/27 09:44:35;;;;;;;5.60;1.45;;;10.30;86.70;;;;;;5080690;28;20028;-75
2023/02/27 09:47:09;;;;;;;5.07;1.30;;;10.30;77.40;;;;;;5080690;28;20031;-74
2023/02/27 09:50:01;;;;;;;3.72;1.77;;;10.40;92.10;;;;;;5076803;28;20027;-77
2023/02/27 09:52:29;;;;;;;7.00;1.48;;;10.40;91.80;;;;;;5077430;28;20093;-75
2023/02/27 09:54:56;;;;;;;5.38;1.25;;;10.50;76.60;;;;;;5076849;28;20024;-75
2023/02/27 09:57:33;;;;;;;3.00;0.90;;;10.60;78.50;;;;;;5077314;28;20050;-76
2023/02/27 10:00:06;;;;;;;3.78;1.20;;;10.80;90.00;;;;;;5083624;28;20852;-74
2023/02/27 10:02:55;;;;;;;4.28;1.75;;;10.90;90.20;;;;;;5078226;28;20021;-75
2023/02/27 10:05:55;;;;;;;7.55;1.50;;;10.90;93.70;;;;;;5081150;28;20028;-79
2023/02/27 10:08:40;;;;;;;4.90;1.10;;;11.00;88.70;;;;;;5080960;28;20043;-75
2023/02/27 10:11:11;;;;;;;5.22;1.15;;;11.00;85.50;;;;;;5081177;28;20122;-76
2023/02/27 10:14:17;;;;;;;4.85;1.40;;;11.10;74.40;;;;;;5085917;28;20031;-74
2023/02/27 10:16:45;;;;;;;3.75;1.10;;;11.10;69.20;;;;;;5067237;28;20071;-76
2023/02/27 10:19:16;;;;;;;6.97;1.25;;;11.20;74.30;;;;;;5075421;28;20336;-76
2023/02/27 10:21:50;;;;;;;7.05;1.30;;;11.30;80.40;;;;;;5078985;28;21077;-76
2023/02/27 10:24:43;;;;;;;5.38;1.27;;;11.20;65.10;;;;;;5081270;28;20020;-76
2023/02/27 10:27:16;;;;;;;4.18;1.13;;;11.20;92.70;;;;;;5079140;28;20397;-75
2023/02/27 10:29:42;;;;;;;5.90;2.03;;;11.40;96.30;;;;;;5079600;28;20034;-76
2023/02/27 10:32:22;;;;;;;4.93;1.27;;;11.50;97.40;;;;;;5083632;28;20020;-75
2023/02/27 10:34:57;;;;;;;4.60;1.85;;;11.60;94.10;;;;;;5094594;28;20059;-75
2023/02/27 10:37:25;;;;;;;4.05;1.02;;;11.80;97.00;;;;;;5079536;28;20020;-76
2023/02/27 10:39:57;;;;;;;7.07;1.10;;;12.00;98.10;;;;;;5079223;28;20827;-77
2023/02/27 10:42:30;;;;;;;4.25;1.30;;;12.20;95.80;;;;;;5080270;28;20544;-75
2023/02/27 10:44:56;;;;;;;5.00;1.20;;;12.30;98.90;;;;;;5077073;28;20035;-75
2023/02/27 10:47:23;;;;;;;2.33;1.02;;;12.30;97.40;;;;;;5081276;28;20016;-76
2023/02/27 10:49:49;;;;;;;5.53;1.58;;;12.00;93.30;;;;;;5080812;28;20367;-76
2023/02/27 10:52:16;;;;;;;2.53;1.20;;;11.90;90.30;;;;;;5076578;28;20429;-76
2023/02/27 10:54:43;;;;;;;3.65;1.30;;;11.90;98.40;;;;;;5076037;28;20055;-75
2023/02/27 10:57:29;;;;;;;3.92;1.05;;;12.00;95.70;;;;;;5079956;28;20017;-76
2023/02/27 11:00:04;;;;;;;4.80;1.27;;;11.90;95.30;;;;;;5079978;28;20020;-76
2023/02/27 11:02:37;;;;;;;6.15;1.40;;;12.10;93.50;;;;;;5080370;28;20539;-76
2023/02/27 11:05:05;;;;;;;2.67;0.98;;;12.00;78.60;;;;;;5081825;28;20028;-75
2023/02/27 11:07:32;;;;;;;4.50;1.30;;;11.90;90.90;;;;;;5077678;28;20540;-77
2023/02/27 11:10:13;;;;;;;2.63;0.93;;;11.80;79.80;;;;;;5083264;28;20017;-76
2023/02/27 11:12:55;;;;;;;6.68;1.15;;;11.60;91.30;;;;;;5075631;28;20554;-76
2023/02/27 11:15:24;;;;;;;4.38;1.60;;;11.40;91.70;;;;;;5080900;28;20028;-76
2023/02/27 11:17:50;;;;;;;2.93;1.07;;;11.20;86.90;;;;;;5082525;28;20020;-75
2023/02/27 11:20:30;;;;;;;4.95;1.40;;;11.20;90.10;;;;;;5077797;28;20258;-76
2023/02/27 11:23:16;;;;;;;2.92;0.88;;;11.20;97.70;;;;;;5078581;28;20070;-75
2023/02/27 11:25:42;;;;;;;2.30;1.17;;;11.30;98.60;;;;;;5083041;28;20032;-77
2023/02/27 11:28:29;;;;;;;4.07;0.90;;;11.40;98.80;;;;;;5079248;28;20085;-77
2023/02/27 11:31:04;;;;;;;2.90;1.10;;;11.50;94.30;;;;;;5077587;28;20016;-76
2023/02/27 11:33:35;;;;;;;6.93;1.38;;;11.40;91.70;;;;;;5076675;28;20020;-76
2023/02/27 11:36:02;;;;;;;2.75;0.90;;;11.50;93.30;;;;;;5077339;28;20070;-76
2023/02/27 11:38:29;;;;;;;2.08;0.73;;;11.80;93.50;;;;;;5074197;28;20387;-76
2023/02/27 11:41:01;;;;;;;4.50;0.80;;;11.80;91.20;;;;;;5079662;28;20027;-76
2023/02/27 11:43:35;;;;;;;2.78;0.93;;;12.00;94.80;;;;;;5074212;28;20047;-76
2023/02/27 11:46:07;;;;;;;3.63;0.82;;;12.20;93.90;;;;;;5078301;28;20146;-75
2023/02/27 11:48:40;;;;;;;2.05;0.95;;;12.20;95.30;;;;;;5081557;28;20066;-76
2023/02/27 11:51:33;;;;;;;2.28;0.95;;;12.30;97.10;;;;;;5083773;28;20069;-75
2023/02/27 11:54:34;;;;;;;2.10;0.60;;;12.30;80.90;;;;;;5078132;28;20483;-75
2023/02/27 11:57:24;;;;;;;3.00;0.77;;;12.40;95.50;;;;;;5081657;28;20025;-75
2023/02/27 11:59:51;;;;;;;3.85;0.93;;;12.60;94.90;;;;;;5081350;28;20124;-76
2023/02/27 12:02:31;;;;;;;2.28;0.60;;;12.60;79.20;;;;;;5085546;28;20020;-75
2023/02/27 12:05:23;;;;;;;3.25;0.60;;;12.60;91.50;;;;;;5079883;28;20040;-75
2023/02/27 12:07:57;;;;;;;2.60;0.65;;;12.60;94.50;;;;;;5077164;28;20040;-74
2023/02/27 12:10:38;;;;;;;1.55;0.60;;;12.60;94.90;;;;;;5081246;28;20051;-75
2023/02/27 12:13:10;;;;;;;3.67;0.90;;;12.50;90.80;;;;;;5084098;28;20055;-74
2023/02/27 12:16:01;;;;;;;4.15;1.42;;;12.70;91.90;;;;;;5073710;28;20016;-73
2023/02/27 12:18:42;;;;;;;2.83;0.85;;;12.70;95.30;;;;;;5079361;28;20020;-74
2023/02/27 12:21:23;;;;;;;1.85;0.70;;;12.50;91.00;;;;;;5076574;28;20099;-73
2023/02/27 12:24:01;;;;;;;2.63;0.90;;;12.30;94.00;;;;;;5069636;28;20036;-72
2023/02/27 12:26:33;;;;;;;2.60;0.93;;;12.30;98.70;;;;;;5070742;28;20029;-73
2023/02/27 12:29:11;;;;;;;2.80;1.00;;;12.20;97.00;;;;;;5070005;28;20048;-74
2023/02/27 12:31:43;;;;;;;4.45;0.95;;;12.20;98.90;;;;;;5069404;28;20020;-75
2023/02/27 12:34:32;;;;;;;3.88;0.95;;;12.20;99.00;;;;;;5072304;28;20020;-78
2023/02/27 12:37:14;;;;;;;2.90;1.23;;;12.20;99.30;;;;;;5075678;28;20387;-76
2023/02/27 12:39:42;;;;;;;3.63;1.00;;;12.50;98.80;;;;;;5071648;28;20056;-78
2023/02/27 12:42:41;;;;;;;3.00;1.60;;;12.70;93.60;;;;;;5071753;28;20083;-78
2023/02/27 12:45:25;;;;;;;2.33;0.98;;;12.60;93.00;;;;;;5075652;28;20112;-76
2023/02/27 12:48:12;;;;;;;6.88;1.40;;;12.70;92.60;;;;;;5073624;28;20036;-76
2023/02/27 12:50:51;;;;;;;2.42;1.00;;;12.90;93.50;;;;;;5073423;28;20035;-77
2023/02/27 12:53:43;;;;;;;2.97;0.80;;;12.80;68.50;;;;;;5072700;28;20681;-76
2023/02/27 12:56:26;;;;;;;3.92;0.98;;;13.00;92.80;;;;;;5073064;28;20119;-76
2023/02/27 12:59:13;;;;;;;2.40;1.05;;;13.20;90.00;;;;;;5076418;28;20086;-78
2023/02/27 13:01:57;;;;;;;2.80;1.10;;;13.20;92.10;;;;;;5081503;28;20024;-77
2023/02/27 13:04:44;;;;;;;2.85;0.80;;;12.90;93.20;;;;;;5073201;28;20024;-79
2023/02/27 13:07:20;;;;;;;2.45;0.88;;;12.70;95.10;;;;;;5073474;28;20521;-77
2023/02/27 13:09:52;;;;;;;3.20;0.80;;;12.30;87.70;;;;;;5076155;28;20028;-76
2023/02/27 13:12:25;;;;;;;3.58;0.88;;;12.20;90.80;;;;;;5081153;28;20028;-77
2023/02/27 13:15:17;;;;;;;4.43;1.20;;;12.00;93.90;;;;;;5085804;28;20157;-77
2023/02/27 13:17:57;;;;;;;6.32;1.02;;;11.80;95.40;;;;;;5085592;28;20024;-77
2023/02/27 13:20:34;;;;;;;4.43;0.85;;;11.70;96.50;;;;;;5082148;28;20016;-75
2023/02/27 13:23:10;;;;;;;3.03;0.98;;;11.70;97.60;;;;;;5074083;28;20772;-76